Terminal Aerodrome Forecast
Issued by NWS

Home | Current Version | Previous Version | Text Only | Print | Product List | Glossary Off
Versions: 1 2 3 4 5 6 7 8 9 10 11 12 13 14 15 16 17 18 19 20

000
FTUS43 KMPX 290200 AAA
TAFRNH
TAF AMD
KRNH 290249Z 2903/2924 19004KT P6SM SCT070 BKN250
     FM290500 34006KT P6SM BKN070 BKN250
     FM290900 36006KT 6SM BR BKN012 OVC050
     FM291100 03008KT 4SM -RA BR BKN007 OVC012
     FM291700 04009KT P6SM SCT008 OVC018
     FM292100 04008KT P6SM BKN035=

USA.gov is the U.S. government's official web portal to all federal, state and local government web resources and services.